| time (UTC) | temp C | wind direction | speed KPH | gust KPH | rain 1hr cm | rain 24hr cm | rain mn cm | humidity % | barometer mb |
| 20260509005758 | 27 | 63 | 12.9 | 20.9 | 0.00 | 0.00 | 0.00 | 60 | 1017.3 |
| 20260509005256 | 27 | 105 | 17.7 | 25.7 | 0.00 | 0.00 | 0.00 | 57 | 1017.4 |
| 20260509004755 | 27 | 66 | 12.9 | 16.1 | 0.00 | 0.00 | 0.00 | 59 | 1017.2 |
| 20260509004252 | 27 | 75 | 9.7 | 14.5 | 0.00 | 0.00 | 0.00 | 56 | 1017.3 |
| 20260509003751 | 27 | 93 | 9.7 | 16.1 | 0.00 | 0.00 | 0.00 | 58 | 1017.4 |
| 20260509003248 | 27 | 132 | 9.7 | 16.1 | 0.00 | 0.00 | 0.00 | 57 | 1017.4 |
| 20260509002745 | 27 | 123 | 6.4 | 16.1 | 0.00 | 0.00 | 0.00 | 57 | 1017.3 |
| 20260509002242 | 28 | 145 | 14.5 | 20.9 | 0.00 | 0.00 | 0.00 | 57 | 1017.5 |
| 20260509001740 | 28 | 190 | 6.4 | 12.9 | 0.00 | 0.00 | 0.00 | 58 | 1017.4 |
| 20260509001235 | 28 | 96 | 9.7 | 17.7 | 0.00 | 0.00 | 0.00 | 55 | 1017.4 |
| 20260509000734 | 27 | 158 | 11.3 | 16.1 | 0.00 | 0.00 | 0.00 | 56 | 1017.5 |
| 20260509000231 | 28 | 67 | 11.3 | 17.7 | 0.00 | 0.00 | 0.00 | 56 | 1017.6 |
| 20260508235727 | 27 | 198 | 8.0 | 24.1 | 0.00 | 0.00 | 0.00 | 58 | 1017.8 |
| 20260508235224 | 27 | 161 | 12.9 | 20.9 | 0.00 | 0.00 | 0.00 | 59 | 1017.6 |
| 20260508234722 | 27 | 147 | 9.7 | 12.9 | 0.00 | 0.00 | 0.00 | 57 | 1017.8 |
| 20260508234218 | 27 | 90 | 6.4 | 9.7 | 0.00 | 0.00 | 0.00 | 60 | 1017.6 |
| 20260508233717 | 27 | 120 | 8.0 | 16.1 | 0.00 | 0.00 | 0.00 | 60 | 1017.9 |
| 20260508233215 | 27 | 157 | 12.9 | 17.7 | 0.00 | 0.00 | 0.00 | 56 | 1017.9 |
| 20260508232712 | 27 | 235 | 1.6 | 11.3 | 0.00 | 0.00 | 0.00 | 60 | 1018.0 |
| 20260508232208 | 27 | 136 | 11.3 | 16.1 | 0.00 | 0.00 | 0.00 | 59 | 1017.9 |
| 20260508231707 | 27 | 85 | 9.7 | 12.9 | 0.00 | 0.00 | 0.00 | 61 | 1017.9 |
| 20260508231203 | 27 | 71 | 4.8 | 14.5 | 0.00 | 0.00 | 0.00 | 62 | 1017.9 |
| 20260508230700 | 27 | 52 | 9.7 | 14.5 | 0.00 | 0.00 | 0.00 | 59 | 1018.0 |
| 20260508230156 | 27 | 113 | 9.7 | 14.5 | 0.00 | 0.00 | 0.00 | 62 | 1018.1 |
| 20260508225654 | 27 | 122 | 6.4 | 9.7 | 0.00 | 0.00 | 0.00 | 63 | 1018.3 |
| 20260508225150 | 27 | 46 | 9.7 | 16.1 | 0.00 | 0.00 | 0.00 | 63 | 1018.4 |
| 20260508224648 | 27 | 107 | 9.7 | 12.9 | 0.00 | 0.00 | 0.00 | 61 | 1018.3 |
| 20260508224145 | 27 | 131 | 8.0 | 16.1 | 0.00 | 0.00 | 0.00 | 60 | 1018.4 |
| 20260508223643 | 27 | 93 | 6.4 | 14.5 | 0.00 | 0.00 | 0.00 | 60 | 1018.5 |
| 20260508223140 | 27 | 102 | 6.4 | 11.3 | 0.00 | 0.00 | 0.00 | 64 | 1018.5 |
| 20260508222637 | 27 | 61 | 8.0 | 12.9 | 0.00 | 0.00 | 0.00 | 64 | 1018.6 |
| 20260508222134 | 27 | 125 | 12.9 | 14.5 | 0.00 | 0.00 | 0.00 | 64 | 1018.6 |
| 20260508221630 | 27 | 55 | 11.3 | 16.1 | 0.00 | 0.00 | 0.00 | 62 | 1018.8 |
| 20260508221126 | 27 | 91 | 9.7 | 14.5 | 0.00 | 0.00 | 0.00 | 59 | 1018.8 |
| 20260508220623 | 27 | 125 | 6.4 | 12.9 | 0.00 | 0.00 | 0.00 | 63 | 1018.9 |
| 20260508220120 | 26 | 150 | 3.2 | 12.9 | 0.00 | 0.00 | 0.00 | 63 | 1018.9 |
| 20260508215616 | 26 | 163 | 6.4 | 11.3 | 0.00 | 0.00 | 0.00 | 63 | 1019.0 |
| 20260508215113 | 26 | 121 | 6.4 | 11.3 | 0.00 | 0.00 | 0.00 | 63 | 1019.2 |
| 20260508214610 | 26 | 94 | 11.3 | 17.7 | 0.00 | 0.00 | 0.00 | 62 | 1018.8 |
| 20260508214107 | 26 | 126 | 6.4 | 12.9 | 0.00 | 0.00 | 0.00 | 62 | 1018.7 |
| 20260508213604 | 26 | 70 | 11.3 | 14.5 | 0.00 | 0.00 | 0.00 | 64 | 1019.0 |
| 20260508213100 | 25 | 93 | 9.7 | 14.5 | 0.00 | 0.00 | 0.00 | 67 | 1019.1 |
| 20260508212557 | 25 | 128 | 6.4 | 14.5 | 0.00 | 0.00 | 0.00 | 68 | 1019.3 |
| 20260508212053 | 25 | 79 | 11.3 | 20.9 | 0.00 | 0.00 | 0.00 | 68 | 1019.2 |
| 20260508211548 | 25 | 79 | 8.0 | 17.7 | 0.00 | 0.00 | 0.00 | 70 | 1019.4 |
| 20260508211045 | 25 | 125 | 6.4 | 14.5 | 0.00 | 0.00 | 0.00 | 68 | 1019.4 |
| 20260508210542 | 25 | 56 | 9.7 | 22.5 | 0.00 | 0.00 | 0.00 | 67 | 1019.7 |
| 20260508210039 | 25 | 145 | 11.3 | 14.5 | 0.00 | 0.00 | 0.00 | 67 | 1019.6 |
| 20260508205536 | 26 | 92 | 11.3 | 16.1 | 0.00 | 0.00 | 0.00 | 67 | 1019.8 |
| 20260508205032 | 25 | 171 | 8.0 | 9.7 | 0.00 | 0.00 | 0.00 | 68 | 1019.9 |
| 20260508204529 | 25 | 136 | 6.4 | 17.7 | 0.00 | 0.00 | 0.00 | 67 | 1019.9 |
| 20260508204025 | 26 | 131 | 9.7 | 16.1 | 0.00 | 0.00 | 0.00 | 65 | 1020.0 |
| 20260508203521 | 26 | 93 | 9.7 | 12.9 | 0.00 | 0.00 | 0.00 | 66 | 1019.9 |
| 20260508203017 | 26 | 73 | 9.7 | 11.3 | 0.00 | 0.00 | 0.00 | 66 | 1019.9 |
| 20260508202514 | 25 | 30 | 4.8 | 9.7 | 0.00 | 0.00 | 0.00 | 66 | 1019.9 |
| 20260508202011 | 26 | 92 | 14.5 | 16.1 | 0.00 | 0.00 | 0.00 | 64 | 1019.9 |
| 20260508201508 | 26 | 59 | 4.8 | 9.7 | 0.00 | 0.00 | 0.00 | 66 | 1019.9 |
| 20260508201004 | 26 | 38 | 11.3 | 12.9 | 0.00 | 0.00 | 0.00 | 64 | 1020.0 |
| 20260508200502 | 25 | 106 | 6.4 | 9.7 | 0.00 | 0.00 | 0.00 | 66 | 1019.9 |
| 20260508195956 | 25 | 78 | 9.7 | 14.5 | 0.00 | 0.00 | 0.00 | 67 | 1020.3 |
| 20260508195454 | 25 | 56 | 4.8 | 12.9 | 0.00 | 0.00 | 0.00 | 68 | 1020.1 |
| 20260508194950 | 25 | 43 | 4.8 | 12.9 | 0.00 | 0.00 | 0.00 | 68 | 1020.0 |
| 20260508194448 | 25 | 43 | 8.0 | 16.1 | 0.00 | 0.00 | 0.00 | 68 | 1020.2 |
| 20260508193944 | 25 | 38 | 6.4 | 11.3 | 0.00 | 0.00 | 0.00 | 69 | 1020.0 |
| 20260508193441 | 25 | 77 | 6.4 | 12.9 | 0.00 | 0.00 | 0.00 | 69 | 1020.1 |
| 20260508192938 | 25 | 102 | 9.7 | 11.3 | 0.00 | 0.00 | 0.00 | 69 | 1020.1 |
| 20260508192434 | 25 | 53 | 6.4 | 11.3 | 0.00 | 0.00 | 0.00 | 69 | 1020.1 |
| 20260508191931 | 25 | 30 | 4.8 | 6.4 | 0.00 | 0.00 | 0.00 | 68 | 1020.1 |
| 20260508191429 | 25 | 253 | 3.2 | 9.7 | 0.00 | 0.00 | 0.00 | 68 | 1019.8 |
| 20260508190925 | 24 | 52 | 3.2 | 4.8 | 0.00 | 0.00 | 0.00 | 69 | 1020.0 |
| 20260508190423 | 24 | 250 | 3.2 | 6.4 | 0.00 | 0.00 | 0.00 | 70 | 1019.8 |
| 20260508185918 | 23 | 27 | 3.2 | 6.4 | 0.00 | 0.00 | 0.00 | 70 | 1019.8 |
| 20260508185416 | 23 | 11 | 9.7 | 12.9 | 0.00 | 0.00 | 0.00 | 70 | 1019.6 |
| 20260508184913 | 23 | 24 | 4.8 | 6.4 | 0.00 | 0.00 | 0.00 | 70 | 1019.7 |
| 20260508184411 | 23 | 30 | 6.4 | 12.9 | 0.00 | 0.00 | 0.00 | 70 | 1019.7 |
| 20260508183907 | 23 | 16 | 9.7 | 11.3 | 0.00 | 0.00 | 0.00 | 69 | 1019.8 |
| 20260508183404 | 23 | 49 | 9.7 | 14.5 | 0.00 | 0.00 | 0.00 | 69 | 1019.5 |
| 20260508182859 | 23 | 54 | 6.4 | 12.9 | 0.00 | 0.00 | 0.00 | 70 | 1019.5 |
| 20260508182357 | 23 | 47 | 6.4 | 12.9 | 0.00 | 0.00 | 0.00 | 71 | 1019.8 |
| 20260508181852 | 23 | 19 | 8.0 | 12.9 | 0.00 | 0.00 | 0.00 | 71 | 1019.7 |
| 20260508181349 | 23 | 67 | 12.9 | 20.9 | 0.00 | 0.00 | 0.00 | 71 | 1019.7 |
| 20260508180846 | 23 | 23 | 6.4 | 11.3 | 0.00 | 0.00 | 0.00 | 73 | 1019.7 |
| 20260508180343 | 22 | 252 | 1.6 | 6.4 | 0.00 | 0.00 | 0.00 | 74 | 1019.8 |
| 20260508175839 | 22 | 274 | 3.2 | 9.7 | 0.00 | 0.00 | 0.00 | 74 | 1019.8 |
| 20260508175335 | 22 | 45 | 3.2 | 9.7 | 0.00 | 0.00 | 0.00 | 74 | 1019.8 |
| 20260508174834 | 22 | 61 | 4.8 | 6.4 | 0.00 | 0.00 | 0.00 | 74 | 1019.8 |
| 20260508174331 | 22 | 79 | 3.2 | 6.4 | 0.00 | 0.00 | 0.00 | 75 | 1019.8 |
| 20260508173827 | 22 | 346 | 4.8 | 4.8 | 0.00 | 0.00 | 0.00 | 75 | 1019.6 |
| 20260508173325 | 22 | 301 | 1.6 | 6.4 | 0.00 | 0.00 | 0.00 | 77 | 1019.9 |
| 20260508172820 | 22 | 14 | 8.0 | 11.3 | 0.00 | 0.00 | 0.00 | 77 | 1019.7 |
| 20260508172317 | 21 | 337 | 4.8 | 9.7 | 0.00 | 0.00 | 0.00 | 77 | 1019.8 |
| 20260508171814 | 21 | 317 | 6.4 | 11.3 | 0.00 | 0.00 | 0.00 | 78 | 1019.6 |
| 20260508171310 | 21 | 30 | 6.4 | 9.7 | 0.00 | 0.00 | 0.00 | 79 | 1019.5 |
| 20260508170807 | 21 | 27 | 4.8 | 9.7 | 0.00 | 0.00 | 0.00 | 79 | 1019.5 |
| 20260508170305 | 21 | 334 | 4.8 | 6.4 | 0.00 | 0.00 | 0.00 | 79 | 1019.5 |
| 20260508165801 | 21 | 48 | 8.0 | 9.7 | 0.00 | 0.00 | 0.00 | 80 | 1019.4 |
| 20260508165259 | 21 | 359 | 4.8 | 6.4 | 0.00 | 0.00 | 0.00 | 81 | 1019.3 |
| 20260508164754 | 21 | 12 | 4.8 | 6.4 | 0.00 | 0.00 | 0.00 | 81 | 1019.2 |
| 20260508164252 | 21 | 1 | 6.4 | 6.4 | 0.00 | 0.00 | 0.00 | 82 | 1019.2 |
| 20260508163750 | 21 | 315 | 4.8 | 9.7 | 0.00 | 0.00 | 0.00 | 82 | 1019.3 |
| 20260508163247 | 21 | 351 | 6.4 | 6.4 | 0.00 | 0.00 | 0.00 | 83 | 1019.2 |
| 20260508162743 | 21 | 8 | 6.4 | 11.3 | 0.00 | 0.00 | 0.00 | 83 | 1019.1 |
| 20260508162240 | 21 | 26 | 6.4 | 6.4 | 0.00 | 0.00 | 0.00 | 83 | 1019.1 |
| 20260508161737 | 21 | 42 | 4.8 | 9.7 | 0.00 | 0.00 | 0.00 | 83 | 1019.0 |
| 20260508161234 | 21 | 21 | 4.8 | 9.7 | 0.00 | 0.00 | 0.00 | 83 | 1019.1 |
| 20260508160732 | 21 | 22 | 6.4 | 6.4 | 0.00 | 0.00 | 0.00 | 82 | 1018.9 |
| 20260508160230 | 21 | 16 | 6.4 | 6.4 | 0.00 | 0.00 | 0.00 | 82 | 1019.0 |
| 20260508155726 | 21 | 350 | 4.8 | 6.4 | 0.00 | 0.00 | 0.00 | 81 | 1019.0 |
| 20260508155223 | 21 | 335 | 4.8 | 6.4 | 0.00 | 0.00 | 0.00 | 81 | 1018.9 |
| 20260508154720 | 21 | 28 | 3.2 | 4.8 | 0.00 | 0.00 | 0.00 | 81 | 1018.8 |
| 20260508154217 | 21 | 13 | 4.8 | 6.4 | 0.00 | 0.00 | 0.00 | 81 | 1018.8 |
| 20260508153714 | 21 | 304 | 4.8 | 9.7 | 0.00 | 0.00 | 0.00 | 82 | 1018.8 |
| 20260508153211 | 21 | 266 | 3.2 | 6.4 | 0.00 | 0.00 | 0.00 | 82 | 1018.6 |
| 20260508152708 | 21 | 5 | 4.8 | 4.8 | 0.00 | 0.00 | 0.00 | 82 | 1018.6 |
| 20260508152203 | 21 | 12 | 4.8 | 6.4 | 0.00 | 0.00 | 0.00 | 82 | 1018.6 |
| 20260508151700 | 21 | 30 | 4.8 | 6.4 | 0.00 | 0.00 | 0.00 | 82 | 1018.4 |
| 20260508151157 | 21 | 25 | 4.8 | 4.8 | 0.00 | 0.00 | 0.00 | 82 | 1018.2 |
| 20260508150654 | 21 | 308 | 3.2 | 6.4 | 0.00 | 0.00 | 0.00 | 81 | 1018.3 |
| 20260508150150 | 21 | 8 | 6.4 | 6.4 | 0.00 | 0.00 | 0.00 | 81 | 1018.4 |
| 20260508145646 | 21 | 355 | 3.2 | 6.4 | 0.00 | 0.00 | 0.00 | 82 | 1018.3 |
| 20260508145142 | 21 | 33 | 6.4 | 9.7 | 0.00 | 0.00 | 0.00 | 82 | 1018.2 |
| 20260508144640 | 21 | 23 | 3.2 | 11.3 | 0.00 | 0.00 | 0.00 | 82 | 1018.2 |
| 20260508144138 | 21 | 29 | 4.8 | 6.4 | 0.00 | 0.00 | 0.00 | 82 | 1018.2 |
| 20260508143635 | 21 | 13 | 8.0 | 11.3 | 0.00 | 0.00 | 0.00 | 82 | 1018.1 |
| 20260508143132 | 21 | 356 | 6.4 | 11.3 | 0.00 | 0.00 | 0.00 | 82 | 1018.0 |
| 20260508142628 | 21 | 16 | 6.4 | 9.7 | 0.00 | 0.00 | 0.00 | 82 | 1018.0 |
| 20260508142125 | 21 | 14 | 3.2 | 6.4 | 0.00 | 0.00 | 0.00 | 83 | 1017.9 |
| 20260508141621 | 21 | 14 | 3.2 | 9.7 | 0.00 | 0.00 | 0.00 | 82 | 1018.0 |
| 20260508141119 | 21 | 340 | 6.4 | 9.7 | 0.00 | 0.00 | 0.00 | 82 | 1017.9 |
| 20260508140616 | 21 | 336 | 6.4 | 6.4 | 0.00 | 0.00 | 0.00 | 83 | 1018.0 |
| 20260508140113 | 21 | 7 | 6.4 | 9.7 | 0.00 | 0.00 | 0.00 | 83 | 1017.9 |
| 20260508135608 | 21 | 19 | 6.4 | 9.7 | 0.00 | 0.00 | 0.00 | 83 | 1017.9 |
| 20260508135105 | 20 | 12 | 8.0 | 9.7 | 0.00 | 0.00 | 0.00 | 83 | 1018.0 |
| 20260508134602 | 20 | 25 | 6.4 | 11.3 | 0.00 | 0.00 | 0.00 | 83 | 1018.2 |
| 20260508134059 | 21 | 37 | 4.8 | 9.7 | 0.00 | 0.00 | 0.00 | 83 | 1018.0 |
| 20260508133555 | 21 | 24 | 4.8 | 6.4 | 0.00 | 0.00 | 0.00 | 82 | 1018.1 |
| 20260508133053 | 21 | 31 | 6.4 | 9.7 | 0.00 | 0.00 | 0.00 | 82 | 1018.0 |
| 20260508132550 | 21 | 16 | 6.4 | 9.7 | 0.00 | 0.00 | 0.00 | 82 | 1018.2 |
| 20260508132047 | 21 | 2 | 4.8 | 9.7 | 0.00 | 0.00 | 0.00 | 83 | 1018.1 |
| 20260508131542 | 21 | 336 | 4.8 | 9.7 | 0.00 | 0.00 | 0.00 | 83 | 1018.2 |
| 20260508131039 | 21 | 349 | 4.8 | 11.3 | 0.00 | 0.00 | 0.00 | 84 | 1018.2 |
| 20260508130537 | 21 | 336 | 8.0 | 11.3 | 0.00 | 0.00 | 0.00 | 85 | 1018.4 |
| 20260508130033 | 20 | 352 | 6.4 | 11.3 | 0.00 | 0.00 | 0.00 | 86 | 1018.3 |
| 20260508125528 | 20 | 8 | 4.8 | 11.3 | 0.00 | 0.00 | 0.00 | 86 | 1018.3 |
| 20260508125027 | 20 | 12 | 6.4 | 12.9 | 0.00 | 0.00 | 0.00 | 87 | 1018.4 |
| 20260508124524 | 20 | 23 | 6.4 | 9.7 | 0.00 | 0.00 | 0.00 | 87 | 1018.6 |
| 20260508124021 | 21 | 327 | 4.8 | 9.7 | 0.00 | 0.00 | 0.00 | 87 | 1018.7 |
| 20260508123520 | 21 | 4 | 8.0 | 12.9 | 0.00 | 0.00 | 0.00 | 87 | 1018.6 |
| 20260508123016 | 21 | 48 | 9.7 | 12.9 | 0.00 | 0.00 | 0.00 | 87 | 1018.5 |
| 20260508122513 | 21 | 252 | 4.8 | 11.3 | 0.00 | 0.00 | 0.00 | 87 | 1018.4 |
| 20260508122010 | 21 | 38 | 6.4 | 9.7 | 0.00 | 0.00 | 0.00 | 87 | 1018.6 |
| 20260508121508 | 21 | 18 | 6.4 | 6.4 | 0.00 | 0.00 | 0.00 | 87 | 1018.7 |
| 20260508121006 | 21 | 354 | 6.4 | 6.4 | 0.00 | 0.00 | 0.00 | 87 | 1018.8 |
| 20260508120503 | 21 | 7 | 6.4 | 6.4 | 0.00 | 0.00 | 0.00 | 87 | 1018.8 |
| 20260508120001 | 21 | 1 | 8.0 | 11.3 | 0.00 | 0.00 | 0.00 | 87 | 1019.0 |
| 20260508115458 | 21 | 13 | 4.8 | 11.3 | 0.00 | 0.00 | 0.00 | 87 | 1019.0 |
| 20260508114955 | 21 | 22 | 6.4 | 9.7 | 0.00 | 0.00 | 0.00 | 87 | 1019.1 |
| 20260508114452 | 21 | 337 | 6.4 | 11.3 | 0.00 | 0.00 | 0.00 | 87 | 1019.1 |
| 20260508113948 | 21 | 22 | 6.4 | 9.7 | 0.00 | 0.00 | 0.00 | 87 | 1019.2 |
| 20260508113446 | 21 | 306 | 4.8 | 6.4 | 0.00 | 0.00 | 0.00 | 87 | 1019.3 |
| 20260508112943 | 21 | 329 | 3.2 | 4.8 | 0.00 | 0.00 | 0.00 | 87 | 1019.1 |
| 20260508112439 | 21 | 12 | 3.2 | 4.8 | 0.00 | 0.00 | 0.00 | 87 | 1019.2 |
| 20260508111936 | 20 | 26 | 3.2 | 4.8 | 0.00 | 0.00 | 0.00 | 87 | 1019.5 |
| 20260508111433 | 20 | 11 | 4.8 | 6.4 | 0.00 | 0.00 | 0.00 | 87 | 1019.6 |
| 20260508110930 | 21 | 55 | 4.8 | 6.4 | 0.00 | 0.00 | 0.00 | 86 | 1019.4 |
| 20260508110428 | 21 | 326 | 4.8 | 4.8 | 0.00 | 0.00 | 0.00 | 86 | 1019.2 |
| 20260508105927 | 21 | 290 | 3.2 | 4.8 | 0.00 | 0.00 | 0.00 | 86 | 1019.4 |
| 20260508105424 | 21 | 319 | 3.2 | 4.8 | 0.00 | 0.00 | 0.00 | 86 | 1019.3 |
| 20260508104921 | 21 | 303 | 4.8 | 6.4 | 0.00 | 0.00 | 0.00 | 86 | 1019.5 |
| 20260508104419 | 21 | 300 | 3.2 | 4.8 | 0.00 | 0.00 | 0.00 | 86 | 1019.4 |
| 20260508103915 | 21 | 328 | 3.2 | 4.8 | 0.00 | 0.00 | 0.00 | 86 | 1019.5 |
| 20260508103413 | 21 | 320 | 3.2 | 4.8 | 0.00 | 0.00 | 0.00 | 86 | 1019.7 |
| 20260508102909 | 21 | 343 | 1.6 | 4.8 | 0.00 | 0.00 | 0.00 | 86 | 1019.7 |
| 20260508102408 | 21 | 284 | 3.2 | 6.4 | 0.00 | 0.00 | 0.00 | 86 | 1019.5 |
| 20260508101905 | 21 | 300 | 4.8 | 4.8 | 0.00 | 0.00 | 0.00 | 86 | 1019.8 |
| 20260508101402 | 21 | 285 | 3.2 | 3.2 | 0.00 | 0.00 | 0.00 | 86 | 1019.7 |
| 20260508100859 | 21 | 306 | 1.6 | 3.2 | 0.00 | 0.00 | 0.00 | 86 | 1019.8 |
| 20260508100358 | 21 | 274 | 3.2 | 4.8 | 0.00 | 0.00 | 0.00 | 86 | 1019.9 |
| 20260508095853 | 21 | 288 | 1.6 | 3.2 | 0.00 | 0.08 | 0.08 | 86 | 1019.9 |
| 20260508095351 | 21 | 275 | 1.6 | 4.8 | 0.00 | 0.08 | 0.08 | 87 | 1019.8 |
| 20260508094848 | 21 | 308 | 1.6 | 4.8 | 0.00 | 0.08 | 0.08 | 87 | 1020.1 |
| 20260508094345 | 21 | 347 | 3.2 | 6.4 | 0.00 | 0.08 | 0.08 | 86 | 1020.0 |
| 20260508093842 | 21 | 328 | 4.8 | 6.4 | 0.00 | 0.08 | 0.08 | 86 | 1020.1 |
| 20260508093339 | 21 | 263 | 3.2 | 3.2 | 0.00 | 0.08 | 0.08 | 86 | 1020.0 |
| 20260508092837 | 21 | 315 | 3.2 | 4.8 | 0.00 | 0.08 | 0.08 | 86 | 1020.1 |
| 20260508092334 | 21 | 322 | 4.8 | 4.8 | 0.00 | 0.08 | 0.08 | 86 | 1020.0 |
| 20260508091833 | 21 | 273 | 3.2 | 4.8 | 0.00 | 0.08 | 0.08 | 86 | 1020.2 |
| 20260508091328 | 21 | 341 | 3.2 | 6.4 | 0.00 | 0.08 | 0.08 | 86 | 1020.3 |
| 20260508090826 | 21 | 295 | 3.2 | 4.8 | 0.00 | 0.08 | 0.08 | 86 | 1020.3 |
| 20260508090325 | 21 | 290 | 3.2 | 4.8 | 0.00 | 0.08 | 0.08 | 86 | 1020.4 |
| 20260508085820 | 21 | 334 | 3.2 | 4.8 | 0.00 | 0.08 | 0.08 | 86 | 1020.4 |
| 20260508085317 | 21 | 336 | 3.2 | 4.8 | 0.00 | 0.08 | 0.08 | 86 | 1020.5 |
| 20260508084814 | 21 | 268 | 3.2 | 6.4 | 0.00 | 0.08 | 0.08 | 86 | 1020.3 |
| 20260508084311 | 21 | 299 | 3.2 | 3.2 | 0.00 | 0.08 | 0.08 | 86 | 1020.3 |
| 20260508083808 | 21 | 295 | 3.2 | 6.4 | 0.00 | 0.08 | 0.08 | 86 | 1020.5 |
| 20260508083306 | 21 | 355 | 3.2 | 4.8 | 0.00 | 0.08 | 0.08 | 86 | 1020.3 |
| 20260508082805 | 21 | 315 | 3.2 | 4.8 | 0.00 | 0.08 | 0.08 | 86 | 1020.5 |
| 20260508082306 | 21 | 287 | 4.8 | 6.4 | 0.00 | 0.08 | 0.08 | 86 | 1020.5 |
| 20260508081800 | 20 | 347 | 3.2 | 4.8 | 0.00 | 0.08 | 0.08 | 85 | 1020.6 |
| 20260508081257 | 21 | 277 | 3.2 | 6.4 | 0.00 | 0.08 | 0.08 | 85 | 1020.5 |
| 20260508080754 | 21 | 336 | 3.2 | 6.4 | 0.00 | 0.08 | 0.08 | 85 | 1020.3 |
| 20260508080252 | 21 | 325 | 1.6 | 3.2 | 0.00 | 0.08 | 0.08 | 85 | 1020.4 |
| 20260508075748 | 20 | 283 | 1.6 | 4.8 | 0.00 | 0.08 | 0.08 | 85 | 1020.3 |
| 20260508075245 | 21 | 280 | 3.2 | 3.2 | 0.00 | 0.08 | 0.08 | 85 | 1020.4 |
| 20260508074743 | 21 | 290 | 3.2 | 6.4 | 0.00 | 0.08 | 0.08 | 84 | 1020.4 |
| 20260508074240 | 21 | 300 | 3.2 | 4.8 | 0.00 | 0.08 | 0.08 | 84 | 1020.6 |
| 20260508073737 | 21 | 3 | 3.2 | 4.8 | 0.00 | 0.08 | 0.08 | 84 | 1020.4 |
| 20260508073235 | 21 | 350 | 4.8 | 6.4 | 0.00 | 0.08 | 0.08 | 84 | 1020.2 |
| 20260508072731 | 21 | 358 | 4.8 | 6.4 | 0.00 | 0.08 | 0.08 | 84 | 1020.4 |
| 20260508072228 | 21 | 334 | 3.2 | 4.8 | 0.00 | 0.08 | 0.08 | 84 | 1020.3 |
| 20260508071725 | 21 | 315 | 3.2 | 4.8 | 0.00 | 0.08 | 0.08 | 83 | 1020.0 |
| 20260508071224 | 21 | 352 | 3.2 | 6.4 | 0.00 | 0.08 | 0.08 | 83 | 1019.9 |
| 20260508070720 | 21 | 280 | 3.2 | 4.8 | 0.00 | 0.08 | 0.08 | 83 | 1019.8 |
| 20260508070219 | 21 | 359 | 3.2 | 4.8 | 0.00 | 0.08 | 0.08 | 83 | 1020.1 |
| 20260508065716 | 21 | 340 | 3.2 | 4.8 | 0.00 | 0.08 | 0.08 | 83 | 1019.9 |
| 20260508065214 | 21 | 15 | 3.2 | 4.8 | 0.00 | 0.08 | 0.08 | 83 | 1020.0 |
| 20260508064711 | 21 | 10 | 3.2 | 4.8 | 0.00 | 0.08 | 0.08 | 82 | 1019.9 |
| 20260508064209 | 21 | 314 | 6.4 | 6.4 | 0.00 | 0.08 | 0.08 | 82 | 1020.0 |
| 20260508063707 | 21 | 351 | 4.8 | 6.4 | 0.00 | 0.08 | 0.08 | 82 | 1019.9 |
| 20260508063204 | 21 | 279 | 1.6 | 6.4 | 0.00 | 0.08 | 0.08 | 82 | 1019.9 |
| 20260508062701 | 21 | 18 | 4.8 | 6.4 | 0.00 | 0.08 | 0.08 | 82 | 1019.8 |
| 20260508062158 | 21 | 37 | 3.2 | 3.2 | 0.00 | 0.08 | 0.08 | 82 | 1019.7 |
| 20260508061655 | 21 | 18 | 3.2 | 4.8 | 0.00 | 0.08 | 0.08 | 82 | 1019.7 |
| 20260508061153 | 21 | 299 | 1.6 | 3.2 | 0.00 | 0.08 | 0.08 | 81 | 1019.8 |
| 20260508060649 | 21 | 18 | 3.2 | 4.8 | 0.00 | 0.08 | 0.08 | 81 | 1019.8 |
| 20260508060147 | 22 | 356 | 3.2 | 4.8 | 0.00 | 0.08 | 0.08 | 80 | 1019.6 |
| 20260508055642 | 22 | 19 | 3.2 | 4.8 | 0.00 | 0.08 | 0.08 | 80 | 1019.5 |
| 20260508055139 | 22 | 322 | 3.2 | 4.8 | 0.00 | 0.08 | 0.08 | 79 | 1019.4 |
| 20260508054635 | 22 | 278 | 3.2 | 3.2 | 0.00 | 0.08 | 0.08 | 79 | 1019.5 |
| 20260508054133 | 22 | 8 | 6.4 | 6.4 | 0.00 | 0.08 | 0.08 | 79 | 1019.3 |
| 20260508053630 | 22 | 9 | 3.2 | 4.8 | 0.00 | 0.08 | 0.08 | 78 | 1019.2 |
| 20260508053128 | 22 | 29 | 3.2 | 4.8 | 0.00 | 0.08 | 0.08 | 77 | 1019.2 |
| 20260508052625 | 22 | 317 | 3.2 | 4.8 | 0.00 | 0.08 | 0.08 | 77 | 1019.2 |
| 20260508052122 | 22 | 24 | 3.2 | 4.8 | 0.00 | 0.08 | 0.08 | 76 | 1019.3 |
| 20260508051618 | 22 | 41 | 4.8 | 4.8 | 0.00 | 0.08 | 0.08 | 76 | 1019.1 |
| 20260508051113 | 23 | 102 | 1.6 | 4.8 | 0.00 | 0.08 | 0.08 | 75 | 1019.1 |
| 20260508050609 | 23 | 342 | 1.6 | 3.2 | 0.00 | 0.08 | 0.08 | 75 | 1019.1 |
| 20260508050108 | 23 | 259 | 1.6 | 6.4 | 0.00 | 0.08 | 0.08 | 74 | 1019.0 |
| 20260508045603 | 23 | 355 | 3.2 | 4.8 | 0.00 | 0.08 | 0.08 | 74 | 1019.0 |
| 20260508045101 | 23 | 59 | 6.4 | 9.7 | 0.00 | 0.08 | 0.08 | 73 | 1019.0 |
| 20260508044558 | 23 | 75 | 8.0 | 11.3 | 0.00 | 0.08 | 0.08 | 72 | 1018.8 |
| 20260508044054 | 23 | 32 | 4.8 | 12.9 | 0.00 | 0.08 | 0.08 | 72 | 1018.7 |
| 20260508043551 | 23 | 54 | 9.7 | 9.7 | 0.00 | 0.08 | 0.08 | 71 | 1018.6 |
| 20260508043049 | 24 | 351 | 3.2 | 14.5 | 0.00 | 0.08 | 0.08 | 70 | 1018.6 |
| 20260508042545 | 25 | 57 | 6.4 | 6.4 | 0.00 | 0.08 | 0.08 | 69 | 1018.6 |
| 20260508042043 | 24 | 85 | 4.8 | 9.7 | 0.00 | 0.08 | 0.08 | 69 | 1018.5 |
| 20260508041538 | 24 | 72 | 6.4 | 9.7 | 0.00 | 0.08 | 0.08 | 68 | 1018.6 |
| 20260508041035 | 25 | 57 | 12.9 | 16.1 | 0.00 | 0.08 | 0.08 | 67 | 1018.4 |
| 20260508040532 | 25 | 111 | 6.4 | 14.5 | 0.00 | 0.08 | 0.08 | 67 | 1018.2 |
| 20260508040030 | 25 | 97 | 14.5 | 14.5 | 0.00 | 0.08 | 0.08 | 66 | 1018.2 |
| 20260508035526 | 25 | 77 | 12.9 | 16.1 | 0.00 | 0.08 | 0.08 | 66 | 1018.2 |
| 20260508035024 | 25 | 118 | 9.7 | 16.1 | 0.00 | 0.08 | 0.08 | 66 | 1018.3 |
| 20260508034521 | 25 | 94 | 9.7 | 16.1 | 0.00 | 0.08 | 0.08 | 67 | 1018.3 |
| 20260508034018 | 25 | 63 | 9.7 | 12.9 | 0.00 | 0.08 | 0.08 | 66 | 1018.2 |
| 20260508033515 | 25 | 59 | 14.5 | 17.7 | 0.00 | 0.08 | 0.08 | 67 | 1018.3 |
| 20260508033013 | 25 | 58 | 12.9 | 17.7 | 0.00 | 0.08 | 0.08 | 69 | 1018.2 |
| 20260508032509 | 25 | 25 | 9.7 | 14.5 | 0.00 | 0.08 | 0.08 | 69 | 1018.2 |
| 20260508032007 | 25 | 68 | 8.0 | 14.5 | 0.00 | 0.08 | 0.08 | 69 | 1018.3 |
| 20260508031504 | 25 | 79 | 8.0 | 14.5 | 0.00 | 0.08 | 0.08 | 69 | 1018.1 |
| 20260508030959 | 25 | 105 | 6.4 | 9.7 | 0.00 | 0.08 | 0.08 | 69 | 1018.0 |
| 20260508030456 | 25 | 81 | 6.4 | 9.7 | 0.00 | 0.08 | 0.08 | 68 | 1018.1 |
| 20260508025954 | 25 | 44 | 6.4 | 12.9 | 0.00 | 0.08 | 0.08 | 68 | 1018.0 |
| 20260508025450 | 25 | 104 | 8.0 | 12.9 | 0.00 | 0.08 | 0.08 | 68 | 1018.1 |
| 20260508024948 | 25 | 63 | 8.0 | 11.3 | 0.00 | 0.08 | 0.08 | 68 | 1018.1 |
| 20260508024443 | 25 | 72 | 9.7 | 12.9 | 0.00 | 0.08 | 0.08 | 67 | 1017.9 |
| 20260508023940 | 25 | 79 | 4.8 | 11.3 | 0.00 | 0.08 | 0.08 | 67 | 1018.0 |
| 20260508023437 | 25 | 77 | 6.4 | 12.9 | 0.00 | 0.08 | 0.08 | 66 | 1017.9 |
| 20260508022935 | 25 | 81 | 6.4 | 9.7 | 0.00 | 0.08 | 0.08 | 66 | 1018.0 |
| 20260508022430 | 25 | 55 | 6.4 | 11.3 | 0.00 | 0.08 | 0.08 | 66 | 1018.0 |
| 20260508021927 | 25 | 62 | 6.4 | 12.9 | 0.00 | 0.08 | 0.08 | 66 | 1018.0 |
| 20260508021423 | 25 | 351 | 6.4 | 9.7 | 0.00 | 0.08 | 0.08 | 67 | 1018.0 |
| 20260508020919 | 25 | 105 | 9.7 | 11.3 | 0.00 | 0.08 | 0.08 | 66 | 1017.9 |
| 20260508020417 | 25 | 51 | 9.7 | 12.9 | 0.00 | 0.08 | 0.08 | 66 | 1018.0 |
| 20260508015914 | 25 | 47 | 6.4 | 12.9 | 0.00 | 0.08 | 0.08 | 66 | 1018.0 |
| 20260508015412 | 25 | 115 | 3.2 | 9.7 | 0.00 | 0.08 | 0.08 | 67 | 1017.9 |
| 20260508014908 | 25 | 6 | 6.4 | 12.9 | 0.00 | 0.08 | 0.08 | 68 | 1018.0 |
| 20260508014405 | 25 | 76 | 6.4 | 12.9 | 0.00 | 0.08 | 0.08 | 68 | 1018.3 |
| 20260508013902 | 25 | 66 | 8.0 | 11.3 | 0.00 | 0.08 | 0.08 | 68 | 1018.1 |
| 20260508013357 | 25 | 82 | 11.3 | 14.5 | 0.00 | 0.08 | 0.08 | 68 | 1018.0 |
| 20260508012855 | 25 | 66 | 9.7 | 11.3 | 0.00 | 0.08 | 0.08 | 68 | 1018.2 |
| 20260508012351 | 25 | 68 | 3.2 | 9.7 | 0.00 | 0.08 | 0.08 | 69 | 1018.2 |
| 20260508011849 | 25 | 150 | 3.2 | 9.7 | 0.00 | 0.08 | 0.08 | 70 | 1018.2 |
| 20260508011347 | 25 | 36 | 9.7 | 12.9 | 0.00 | 0.08 | 0.08 | 70 | 1018.2 |
| 20260508010844 | 25 | 33 | 4.8 | 12.9 | 0.00 | 0.08 | 0.08 | 70 | 1018.1 |
| 20260508010341 | 25 | 74 | 9.7 | 11.3 | 0.00 | 0.08 | 0.08 | 70 | 1018.3 |